Main page
METAR-TAF:

METAR-TAF

Airports :

Biarritz Pays Basque Airport

Biarritz, France

latitude: 43-28N, longitude: 001-32W, elevation: 75 m

Current weather observation

The report was made 47 minutes ago, at 09:30 UTC
Wind 3 kt from variable directions
Temperature 23°C
Humidity 57%
Pressure 1027 hPa
Visibility 10 km or more

METAR: LFBZ 130930Z AUTO VRB03KT 9999 NCD 23/14 Q1027 NOSIG

Time: 12:17 (10:17 UTC)

Forecast

The report was made 5 hours and 17 minutes ago, at 05:00 UTC
Forecast valid from 13 at 06 UTC to 14 at 06 UTC
Wind 5 kt from the Southeast
Visibility 10 km or more
no clouds below 1500 m and no cumulonimbus
Becoming
from 13 at 22 UTC to 13 at 24 UTC
Wind 10 kt from the West
Broken clouds at a height of 400 ft
Temporary
from 14 at 00 UTC to 14 at 06 UTC
Visibility: 0500 m
fog,

TAF: LFBZ 130500Z 1306/1406 13005KT CAVOK BECMG 1322/1324 27010KT BKN004 TEMPO 1400/1406 0500 FG VV///

Weather observations and forecasts of more than 4000 airports (METAR and TAF reports).

The available stations are represented by yellow and red dots on the map.

Hover mouse over dot to see the name of the station.

Then click to see weather observations and forecasts.

To change the map : click on the green buttons with a black cross to zoom in, on the green button with a dash to zoom out, or on the green arrows for adjacent maps.


METAR-TAF: